Time;durP1;ratioP1;P1;durP2;ratioP2;P2;SDS_P1;SDS_P2;PMS_P1;PMS_P2;Temp;Humidity;BMP_temperature;BMP_pressure;BME280_temperature;BME280_humidity;BME280_pressure;Samples;Min_cycle;Max_cycle;Signal;HPM_P1;HPM_P2
2021/07/28 00:00:34;;;;;;;15.60;9.75;;;;;;;17.92;94.64;98540.81;5034050;28;20078;-66
2021/07/28 00:03:00;;;;;;;15.52;9.90;;;;;;;17.98;95.17;98556.22;5034723;28;20176;-66
2021/07/28 00:05:25;;;;;;;13.60;10.02;;;;;;;18.02;94.43;98551.88;5037836;28;20116;-66
2021/07/28 00:07:51;;;;;;;23.08;10.80;;;;;;;17.99;95.82;98552.38;5036489;28;20052;-66
2021/07/28 00:10:16;;;;;;;14.57;10.40;;;;;;;18.00;95.66;98555.94;5032268;28;20490;-66
2021/07/28 00:12:42;;;;;;;16.20;10.32;;;;;;;17.87;96.37;98535.31;5012511;28;20040;-65
2021/07/28 00:15:08;;;;;;;15.88;10.13;;;;;;;17.96;95.98;98544.69;5033239;28;20033;-66
2021/07/28 00:17:42;;;;;;;15.50;9.70;;;;;;;17.92;96.49;98536.19;5038341;28;20043;-65
2021/07/28 00:23:12;;;;;;;17.70;10.38;;;;;;;17.93;97.29;98542.47;5040952;28;20857;-66
2021/07/28 00:23:14;;;;;;;15.40;10.47;;;;;;;17.77;97.29;98505.06;5036118;28;20694;-69
2021/07/28 00:25:41;;;;;;;15.48;10.85;;;;;;;17.84;97.13;98533.06;5031715;28;20080;-65
2021/07/28 00:28:06;;;;;;;15.38;10.63;;;;;;;17.81;98.11;98528.94;5037635;28;20065;-65
2021/07/28 00:30:33;;;;;;;19.08;11.07;;;;;;;17.77;98.05;98532.44;5030779;28;20082;-67
2021/07/28 00:32:58;;;;;;;16.13;11.52;;;;;;;17.72;97.79;98533.19;5031280;28;20147;-67
2021/07/28 00:35:23;;;;;;;16.20;10.93;;;;;;;17.77;98.23;98543.38;5032489;28;20657;-66
2021/07/28 00:37:50;;;;;;;15.77;10.25;;;;;;;17.77;97.33;98538.72;5042812;28;20029;-66
2021/07/28 00:40:15;;;;;;;17.33;11.15;;;;;;;17.57;97.92;98514.69;5030104;28;20055;-67
2021/07/28 00:42:41;;;;;;;16.17;11.43;;;;;;;17.67;98.86;98528.47;5045753;28;20037;-67
2021/07/28 00:45:06;;;;;;;16.70;11.45;;;;;;;17.73;98.74;98545.78;5032917;28;20502;-67
2021/07/28 00:47:32;;;;;;;18.02;11.43;;;;;;;17.64;98.67;98537.19;5029548;28;20033;-67
2021/07/28 00:49:59;;;;;;;17.77;11.65;;;;;;;17.66;97.96;98546.00;5034110;28;20036;-66
2021/07/28 00:52:25;;;;;;;18.77;11.50;;;;;;;17.72;96.80;98536.75;5046334;28;20116;-63
2021/07/28 00:54:51;;;;;;;16.77;10.68;;;;;;;17.67;97.47;98544.88;5035859;28;20128;-65
2021/07/28 00:57:16;;;;;;;14.95;10.50;;;;;;;17.75;97.46;98543.63;5036575;28;20571;-67
2021/07/28 00:59:44;;;;;;;19.58;10.68;;;;;;;17.77;97.29;98543.38;5035414;28;20120;-67
2021/07/28 01:02:10;;;;;;;16.33;10.70;;;;;;;17.73;96.75;98540.28;5029223;28;20036;-66
2021/07/28 01:04:35;;;;;;;18.27;11.13;;;;;;;17.75;96.65;98541.69;5037010;28;20389;-67
2021/07/28 01:07:01;;;;;;;17.20;11.07;;;;;;;17.72;97.40;98533.19;5033830;28;20429;-65
2021/07/28 01:09:28;;;;;;;16.02;10.75;;;;;;;17.80;96.29;98534.69;5030240;28;20032;-64
2021/07/28 01:11:56;;;;;;;16.80;10.82;;;;;;;17.73;96.26;98512.94;5012622;28;20029;-66
2021/07/28 01:14:21;;;;;;;14.73;10.55;;;;;;;17.69;96.45;98531.78;5029371;28;20076;-66
2021/07/28 01:16:47;;;;;;;17.17;10.75;;;;;;;17.63;96.65;98530.09;5033803;28;20442;-66
2021/07/28 01:19:16;;;;;;;17.85;11.27;;;;;;;17.71;98.00;98535.09;5032941;28;20033;-67
2021/07/28 01:21:44;;;;;;;16.52;11.65;;;;;;;17.77;97.14;98551.56;5011297;28;20037;-67
2021/07/28 01:24:11;;;;;;;19.92;12.02;;;;;;;17.67;98.68;98538.59;5033156;28;20136;-64
2021/07/28 01:26:38;;;;;;;22.50;12.93;;;;;;;17.66;100.00;98532.31;5032670;28;20037;-67
2021/07/28 01:29:03;;;;;;;21.55;13.52;;;;;;;17.63;100.00;98543.75;5028959;28;20026;-66
2021/07/28 01:31:29;;;;;;;20.85;13.27;;;;;;;17.60;100.00;98544.25;5036668;28;20065;-66
2021/07/28 01:33:55;;;;;;;22.20;14.05;;;;;;;17.49;100.00;98528.81;5030466;28;20395;-65
2021/07/28 01:36:22;;;;;;;21.60;13.70;;;;;;;17.57;100.00;98549.41;5035322;28;20037;-67
2021/07/28 01:38:49;;;;;;;22.33;14.20;;;;;;;17.46;100.00;98529.31;5029688;28;20644;-66
2021/07/28 01:41:14;;;;;;;23.00;14.63;;;;;;;17.49;100.00;98543.31;5028905;28;20044;-65
2021/07/28 01:43:41;;;;;;;19.88;13.65;;;;;;;17.53;100.00;98546.38;5036367;28;20032;-66
2021/07/28 01:46:07;;;;;;;21.60;13.52;;;;;;;17.30;100.00;98529.13;5031820;28;20129;-67
2021/07/28 01:48:33;;;;;;;25.52;13.80;;;;;;;17.45;100.00;98541.34;5029517;28;20112;-67
2021/07/28 01:50:59;;;;;;;22.10;13.60;;;;;;;17.35;100.00;98550.25;5033799;28;20056;-67
2021/07/28 01:53:25;;;;;;;23.63;14.38;;;;;;;17.32;100.00;98542.56;5029102;28;20037;-67
2021/07/28 01:55:52;;;;;;;21.90;14.60;;;;;;;17.20;100.00;98537.19;5031238;28;20018;-68
2021/07/28 01:58:18;;;;;;;25.38;15.95;;;;;;;17.09;100.00;98525.28;5042096;28;20064;-67
2021/07/28 02:00:44;;;;;;;25.13;15.27;;;;;;;17.17;100.00;98526.78;5036004;28;20025;-66
2021/07/28 02:03:09;;;;;;;24.45;15.90;;;;;;;17.15;100.00;98544.50;5036902;28;20035;-67
2021/07/28 02:05:37;;;;;;;27.35;15.63;;;;;;;17.15;100.00;98550.78;5030878;28;20030;-66
2021/07/28 02:08:05;;;;;;;24.65;15.68;;;;;;;17.24;100.00;98552.03;5034495;28;20103;-67
2021/07/28 02:10:35;;;;;;;26.33;15.35;;;;;;;17.26;100.00;98544.38;5029222;28;20052;-66
2021/07/28 02:13:01;;;;;;;26.00;14.52;;;;;;;17.27;100.00;98535.09;5031828;28;20049;-66
2021/07/28 02:15:27;;;;;;;21.92;13.50;;;;;;;17.31;100.00;98525.31;5035388;28;20033;-67
2021/07/28 02:17:54;;;;;;;24.60;14.95;;;;;;;17.27;100.00;98537.84;5028734;28;20036;-67
2021/07/28 02:20:19;;;;;;;25.35;15.13;;;;;;;17.21;100.00;98543.47;5030439;28;20108;-68
2021/07/28 02:22:46;;;;;;;23.23;14.90;;;;;;;17.29;100.00;98540.31;5027890;28;20125;-67
2021/07/28 02:25:13;;;;;;;23.55;14.88;;;;;;;17.27;100.00;98542.50;5030542;28;20025;-67
2021/07/28 02:27:38;;;;;;;25.65;14.82;;;;;;;17.17;100.00;98539.63;5030403;28;20036;-67
2021/07/28 02:30:05;;;;;;;24.02;14.20;;;;;;;17.08;100.00;98518.19;5029122;28;20049;-68
2021/07/28 02:32:30;;;;;;;24.40;14.77;;;;;;;17.03;100.00;98509.91;5032480;28;20112;-68
2021/07/28 02:34:56;;;;;;;22.90;14.48;;;;;;;17.28;100.00;98519.53;5028972;28;20101;-66
2021/07/28 02:37:21;;;;;;;22.08;13.93;;;;;;;17.28;100.00;98531.28;5011152;28;20041;-68
2021/07/28 02:39:46;;;;;;;24.58;14.80;;;;;;;17.19;100.00;98518.31;5028210;28;20386;-68
2021/07/28 02:42:12;;;;;;;23.48;14.18;;;;;;;17.14;100.00;98523.72;5013150;28;20018;-66
2021/07/28 02:44:37;;;;;;;24.48;14.65;;;;;;;17.18;100.00;98528.41;5020587;28;20495;-67
2021/07/28 02:47:02;;;;;;;21.65;13.75;;;;;;;17.11;100.00;98525.06;5034616;28;20060;-67
2021/07/28 02:49:27;;;;;;;24.60;15.10;;;;;;;17.10;100.00;98531.59;5049355;28;20036;-68
2021/07/28 02:51:53;;;;;;;29.30;15.00;;;;;;;16.96;100.00;98512.00;5036304;28;20033;-67
2021/07/28 02:54:21;;;;;;;25.02;14.93;;;;;;;16.99;100.00;98527.06;5032965;28;20021;-67
2021/07/28 02:56:47;;;;;;;25.90;14.13;;;;;;;16.95;100.00;98520.44;5040859;28;20037;-67
2021/07/28 02:59:12;;;;;;;23.52;14.73;;;;;;;16.91;100.00;98524.75;5031287;28;20291;-67
2021/07/28 03:01:37;;;;;;;26.88;14.70;;;;;;;16.93;100.00;98528.91;5032745;28;20052;-67
2021/07/28 03:04:02;;;;;;;29.33;15.38;;;;;;;16.91;100.00;98535.69;5034259;28;20272;-66
2021/07/28 03:06:28;;;;;;;27.52;15.52;;;;;;;16.93;100.00;98536.28;5033384;28;20140;-67
2021/07/28 03:08:53;;;;;;;26.52;14.73;;;;;;;16.91;100.00;98535.69;5041740;28;20029;-69
2021/07/28 03:11:18;;;;;;;26.67;14.02;;;;;;;16.90;100.00;98534.03;5042467;28;20028;-69
2021/07/28 03:13:44;;;;;;;29.20;15.25;;;;;;;16.85;100.00;98532.06;5040987;28;20476;-69
2021/07/28 03:16:09;;;;;;;30.80;14.50;;;;;;;16.79;100.00;98522.97;5038748;28;20029;-70
2021/07/28 03:18:35;;;;;;;24.90;13.90;;;;;;;16.81;100.00;98534.44;5016905;28;20039;-68
2021/07/28 03:21:00;;;;;;;32.33;16.02;;;;;;;16.74;100.00;98525.59;5034952;28;20466;-70
2021/07/28 03:23:26;;;;;;;29.30;15.75;;;;;;;16.76;100.00;98528.88;5041170;28;20385;-69
2021/07/28 03:25:51;;;;;;;32.05;16.95;;;;;;;16.91;100.00;98539.25;5037739;28;20036;-68
2021/07/28 03:28:16;;;;;;;37.47;16.77;;;;;;;16.93;100.00;98533.53;5043372;28;20037;-68
2021/07/28 03:30:41;;;;;;;34.28;16.52;;;;;;;17.04;100.00;98541.63;5040213;28;20095;-69
2021/07/28 03:33:07;;;;;;;34.17;15.60;;;;;;;17.07;100.00;98532.09;5037846;28;20383;-69
2021/07/28 03:35:33;;;;;;;36.22;16.52;;;;;;;17.07;100.00;98526.63;5032058;28;20037;-66
2021/07/28 03:37:58;;;;;;;38.25;17.17;;;;;;;17.02;100.00;98526.56;5047544;28;20032;-68
2021/07/28 03:40:23;;;;;;;40.78;16.52;;;;;;;16.95;100.00;98543.16;5039666;28;20044;-67
2021/07/28 03:42:48;;;;;;;38.78;15.63;;;;;;;16.88;100.00;98537.03;5031147;28;20522;-67
2021/07/28 03:45:14;;;;;;;31.70;14.90;;;;;;;16.86;100.00;98544.63;5034279;28;20025;-67
2021/07/28 03:47:39;;;;;;;33.67;15.73;;;;;;;16.79;100.00;98538.50;5037722;28;20420;-66
2021/07/28 03:50:05;;;;;;;35.15;16.38;;;;;;;16.73;100.00;98543.03;5036421;28;20025;-70
2021/07/28 03:52:30;;;;;;;32.08;15.52;;;;;;;16.61;100.00;98534.97;5028683;28;20044;-68
2021/07/28 03:54:56;;;;;;;37.55;15.57;;;;;;;16.57;100.00;98531.06;5045884;28;20072;-73
2021/07/28 03:57:21;;;;;;;38.50;16.75;;;;;;;16.67;100.00;98545.97;5039391;28;20033;-73
2021/07/28 03:59:46;;;;;;;39.88;16.00;;;;;;;16.59;100.00;98528.91;5021964;28;20485;-65
2021/07/28 04:02:13;;;;;;;34.35;15.35;;;;;;;16.61;100.00;98542.28;5022450;28;20104;-66
2021/07/28 04:04:39;;;;;;;32.45;15.27;;;;;;;16.57;100.00;98533.78;5041288;28;20025;-68
2021/07/28 04:07:05;;;;;;;25.60;14.18;;;;;;;16.48;100.00;98527.09;5013230;28;20029;-68
2021/07/28 04:09:30;;;;;;;40.08;16.77;;;;;;;16.54;100.00;98539.75;5034960;28;20025;-67
2021/07/28 04:11:55;;;;;;;30.83;15.52;;;;;;;16.63;100.00;98542.88;5044594;28;20044;-66
2021/07/28 04:14:20;;;;;;;29.90;15.27;;;;;;;16.55;100.00;98522.28;5035736;28;20111;-70
2021/07/28 04:16:46;;;;;;;26.15;14.45;;;;;;;16.66;100.00;98517.78;5047418;28;20045;-75
2021/07/28 04:19:11;;;;;;;24.58;14.10;;;;;;;16.66;100.00;98509.59;5033991;28;20055;-75
2021/07/28 04:21:36;;;;;;;21.23;13.85;;;;;;;16.69;100.00;98527.41;5033677;28;20043;-75
2021/07/28 04:24:02;;;;;;;19.27;12.43;;;;;;;16.68;100.00;98518.38;5034774;28;20026;-75
2021/07/28 04:26:27;;;;;;;19.90;11.75;;;;;;;16.66;100.00;98526.00;5051518;28;20048;-76
2021/07/28 04:28:53;;;;;;;20.15;11.95;;;;;;;16.81;100.00;98548.13;5036291;28;20029;-75
2021/07/28 04:31:18;;;;;;;19.10;12.38;;;;;;;16.90;100.00;98534.88;5012625;28;20028;-73
2021/07/28 04:33:43;;;;;;;22.92;11.95;;;;;;;16.81;100.00;98528.16;5037256;28;20029;-72
2021/07/28 04:36:09;;;;;;;23.20;12.50;;;;;;;16.78;100.00;98515.84;5037227;28;20017;-70
2021/07/28 04:38:34;;;;;;;19.90;12.25;;;;;;;16.93;100.00;98550.75;5048071;28;20051;-67
2021/07/28 04:41:00;;;;;;;18.90;12.05;;;;;;;17.01;100.00;98557.72;5014853;28;20029;-70
2021/07/28 04:43:25;;;;;;;20.27;11.88;;;;;;;17.04;100.00;98552.56;5031554;28;20493;-70
2021/07/28 04:45:58;;;;;;;17.80;11.45;;;;;;;17.12;100.00;98542.28;5039290;28;20112;-71
2021/07/28 04:48:24;;;;;;;17.85;10.77;;;;;;;17.16;100.00;98541.53;5038900;28;20504;-71
2021/07/28 04:50:49;;;;;;;16.50;10.48;;;;;;;17.15;100.00;98544.50;5049514;28;20033;-68
2021/07/28 04:53:14;;;;;;;17.10;11.15;;;;;;;17.07;100.00;98540.28;5038301;28;20037;-72
2021/07/28 04:55:40;;;;;;;18.40;10.52;;;;;;;17.14;100.00;98543.69;5022367;28;20112;-68
2021/07/28 04:58:07;;;;;;;16.45;10.35;;;;;;;16.97;100.00;98502.72;5049864;28;20082;-73
2021/07/28 05:00:32;;;;;;;21.58;10.85;;;;;;;17.29;100.00;98535.69;5038806;28;20348;-70
2021/07/28 05:02:58;;;;;;;17.02;10.18;;;;;;;17.18;100.00;98539.34;5036341;28;20098;-74
2021/07/28 05:05:23;;;;;;;17.23;9.30;;;;;;;17.31;100.00;98549.91;5049055;28;20033;-70
2021/07/28 05:07:48;;;;;;;15.35;9.57;;;;;;;17.33;100.00;98529.72;5025577;28;20025;-73
2021/07/28 05:10:14;;;;;;;14.50;8.93;;;;;;;17.29;100.00;98551.25;5033001;28;20025;-72
2021/07/28 05:12:39;;;;;;;15.48;8.98;;;;;;;17.26;100.00;98535.34;5040623;28;20030;-75
2021/07/28 05:15:05;;;;;;;14.48;9.95;;;;;;;17.40;100.00;98533.09;5030403;28;20018;-74
2021/07/28 05:17:30;;;;;;;14.18;8.90;;;;;;;17.62;100.00;98542.09;5029725;28;20109;-67
2021/07/28 05:19:56;;;;;;;15.05;9.25;;;;;;;17.68;100.00;98545.72;5033289;28;20048;-69
2021/07/28 05:22:21;;;;;;;10.85;8.02;;;;;;;17.68;100.00;98523.81;5037286;28;20029;-71
2021/07/28 05:24:46;;;;;;;13.20;8.07;;;;;;;17.85;100.00;98545.69;5011122;28;20117;-71
2021/07/28 05:27:12;;;;;;;13.05;8.35;;;;;;;17.78;100.00;98542.28;5042592;28;20039;-73
2021/07/28 05:29:37;;;;;;;10.77;8.00;;;;;;;17.81;100.00;98547.25;5031412;28;20026;-73
2021/07/28 05:32:03;;;;;;;12.75;8.45;;;;;;;17.74;100.00;98556.47;5020566;28;20548;-76
2021/07/28 05:34:28;;;;;;;16.73;10.00;;;;;;;17.67;100.00;98549.53;5015220;28;20082;-73
2021/07/28 05:36:57;;;;;;;14.23;10.00;;;;;;;17.64;100.00;98528.16;5039883;28;20804;-72
2021/07/28 05:39:22;;;;;;;15.35;9.32;;;;;;;17.68;100.00;98532.03;5042698;28;20029;-74
2021/07/28 05:41:48;;;;;;;16.48;9.60;;;;;;;17.81;100.00;98550.00;5016863;28;20535;-74
2021/07/28 05:44:13;;;;;;;17.75;9.88;;;;;;;17.82;100.00;98551.66;5041468;28;20089;-77
2021/07/28 05:46:38;;;;;;;12.88;8.63;;;;;;;17.76;100.00;98542.50;5013661;28;20087;-73
2021/07/28 05:49:03;;;;;;;13.73;7.45;;;;;;;18.07;98.17;98551.91;5033692;28;20132;-73
2021/07/28 05:51:29;;;;;;;11.10;7.57;;;;;;;18.07;98.50;98559.31;5044739;28;20040;-69
2021/07/28 05:53:54;;;;;;;12.65;7.95;;;;;;;18.13;96.98;98556.38;5048580;28;20033;-73
2021/07/28 05:56:19;;;;;;;9.73;7.65;;;;;;;18.26;96.05;98554.28;5049642;28;20162;-74
2021/07/28 05:58:45;;;;;;;17.02;8.50;;;;;;;18.46;94.13;98551.75;5047594;28;20029;-72
2021/07/28 06:01:10;;;;;;;24.02;8.27;;;;;;;18.26;94.52;98562.50;5029029;28;20031;-70
2021/07/28 06:03:36;;;;;;;12.82;8.30;;;;;;;18.22;93.98;98556.72;5035979;28;20079;-72
2021/07/28 06:06:01;;;;;;;13.27;7.45;;;;;;;18.32;93.16;98551.34;5049533;28;20028;-73
2021/07/28 06:08:27;;;;;;;9.98;6.50;;;;;;;18.47;90.49;98566.25;5048265;28;20029;-74
2021/07/28 06:10:52;;;;;;;9.70;6.10;;;;;;;18.46;90.76;98565.44;5029668;28;20021;-75
2021/07/28 06:13:17;;;;;;;9.48;6.32;;;;;;;18.61;88.21;98553.78;5015060;28;20048;-76
2021/07/28 06:15:46;;;;;;;7.82;5.05;;;;;;;18.73;85.67;98534.41;5036404;28;20142;-75
2021/07/28 06:18:11;;;;;;;9.93;5.50;;;;;;;18.98;83.49;98563.94;5033849;28;20028;-74
2021/07/28 06:20:37;;;;;;;8.20;5.50;;;;;;;18.86;84.33;98564.13;5053134;28;20025;-73
2021/07/28 06:23:02;;;;;;;7.28;4.90;;;;;;;18.89;84.05;98551.81;5037868;28;20041;-72
2021/07/28 06:25:27;;;;;;;8.52;5.32;;;;;;;19.21;82.20;98570.97;5052340;28;20029;-71
2021/07/28 06:27:53;;;;;;;12.07;5.90;;;;;;;19.08;83.49;98561.28;5038120;28;20029;-67
2021/07/28 06:30:18;;;;;;;9.45;5.53;;;;;;;19.10;84.88;98559.09;5034258;28;20483;-67
2021/07/28 06:32:44;;;;;;;8.85;6.30;;;;;;;18.97;86.52;98557.66;5044175;28;20067;-70
2021/07/28 06:35:10;;;;;;;8.90;6.00;;;;;;;18.86;86.55;98555.91;5047382;28;20032;-69
2021/07/28 06:37:35;;;;;;;9.07;6.45;;;;;;;18.96;85.30;98582.56;5046954;28;20036;-70
2021/07/28 06:40:00;;;;;;;8.02;6.03;;;;;;;18.91;84.42;98574.31;5032610;28;20030;-68
2021/07/28 06:42:26;;;;;;;11.50;6.97;;;;;;;18.96;83.47;98579.84;5039429;28;20064;-70
2021/07/28 06:44:52;;;;;;;9.00;6.47;;;;;;;18.86;84.08;98577.00;5029704;28;20123;-68
2021/07/28 06:47:19;;;;;;;7.47;5.00;;;;;;;18.86;82.33;98577.84;5040572;28;20037;-67
2021/07/28 06:49:44;;;;;;;9.35;5.95;;;;;;;18.66;86.65;98581.22;5051795;28;20036;-65
2021/07/28 06:52:09;;;;;;;7.38;5.53;;;;;;;18.68;87.05;98570.00;5045509;28;20021;-65
2021/07/28 06:54:34;;;;;;;10.75;6.57;;;;;;;18.93;87.03;98580.38;5052007;28;20036;-65
2021/07/28 06:57:00;;;;;;;7.32;5.65;;;;;;;19.04;87.75;98580.16;5034896;28;20107;-67
2021/07/28 06:59:25;;;;;;;11.05;5.72;;;;;;;18.99;88.51;98582.91;5052048;28;20048;-64
2021/07/28 07:01:51;;;;;;;10.93;6.45;;;;;;;18.91;88.87;98575.13;5046015;28;20112;-64
2021/07/28 07:04:16;;;;;;;13.23;6.45;;;;;;;18.74;88.95;98547.84;5042885;28;20949;-64
2021/07/28 07:06:41;;;;;;;8.88;6.00;;;;;;;18.78;89.33;98583.81;5041054;28;20041;-65
2021/07/28 07:09:06;;;;;;;11.55;6.72;;;;;;;18.68;89.38;98579.06;5041342;28;20055;-68
2021/07/28 07:11:32;;;;;;;8.43;6.75;;;;;;;18.61;90.36;98553.78;5037993;28;20052;-77
2021/07/28 07:13:57;;;;;;;8.02;5.93;;;;;;;18.71;90.33;98548.38;5020916;28;20044;-71
2021/07/28 07:16:23;;;;;;;10.60;6.75;;;;;;;18.84;90.72;98571.81;5039708;28;20029;-70
2021/07/28 07:18:48;;;;;;;8.30;6.22;;;;;;;18.91;90.38;98575.13;5046407;28;20435;-73
2021/07/28 07:21:14;;;;;;;8.27;5.93;;;;;;;19.10;88.81;98572.81;5033694;28;20021;-70
2021/07/28 07:23:39;;;;;;;8.13;6.18;;;;;;;19.37;87.90;98585.59;5032816;28;20082;-74
2021/07/28 07:26:05;;;;;;;9.98;6.80;;;;;;;19.39;86.88;98586.16;5047129;28;20025;-72
2021/07/28 07:28:30;;;;;;;10.30;6.32;;;;;;;19.33;87.63;98557.84;5035881;28;20071;-72
2021/07/28 07:30:55;;;;;;;11.10;6.03;;;;;;;19.49;87.03;98589.78;5024668;28;20025;-68
2021/07/28 07:36:06;;;;;;;9.60;6.35;;;;;;;19.66;82.88;98595.09;5031021;28;20036;-67
2021/07/28 07:38:32;;;;;;;9.18;5.43;;;;;;;19.69;81.75;98605.53;5040327;28;20067;-68
2021/07/28 07:40:57;;;;;;;8.13;5.55;;;;;;;19.80;81.70;98603.63;5045087;28;20057;-67
2021/07/28 07:43:22;;;;;;;7.50;5.60;;;;;;;19.91;80.44;98610.00;5049695;28;20098;-69
2021/07/28 07:45:47;;;;;;;9.88;6.05;;;;;;;20.03;80.50;98607.03;5047152;28;20043;-73
2021/07/28 07:48:13;;;;;;;9.65;6.03;;;;;;;19.82;80.25;98604.19;5038880;28;20294;-72
2021/07/28 07:50:38;;;;;;;10.07;6.22;;;;;;;19.75;81.73;98580.84;5037570;28;20033;-73
2021/07/28 07:53:04;;;;;;;9.93;5.55;;;;;;;20.26;78.64;98600.22;5037869;28;20021;-68
2021/07/28 07:55:30;;;;;;;10.52;5.50;;;;;;;20.44;76.51;98605.19;5034303;28;20021;-70
2021/07/28 07:57:58;;;;;;;6.32;4.75;;;;;;;20.42;76.17;98592.84;5048686;28;20029;-70
2021/07/28 08:00:24;;;;;;;10.00;5.28;;;;;;;20.66;75.26;98610.47;5023645;28;20826;-69
2021/07/28 08:02:49;;;;;;;6.43;5.32;;;;;;;20.45;74.33;98595.84;5038389;28;20033;-69
2021/07/28 08:05:15;;;;;;;6.57;4.68;;;;;;;20.29;74.63;98584.00;5035255;28;20084;-67
2021/07/28 08:07:40;;;;;;;10.05;5.05;;;;;;;20.21;75.44;98595.53;5013038;28;20033;-69
2021/07/28 08:10:07;;;;;;;6.78;4.95;;;;;;;20.10;75.24;98608.44;5032217;28;20025;-71
2021/07/28 08:12:36;;;;;;;6.82;4.25;;;;;;;20.28;75.92;98609.84;5018189;28;20053;-71
2021/07/28 08:15:01;;;;;;;9.63;5.60;;;;;;;20.21;74.53;98598.28;5033250;28;20060;-68
2021/07/28 08:17:26;;;;;;;7.28;5.07;;;;;;;20.23;74.31;98598.84;5040009;28;20312;-71
2021/07/28 08:19:52;;;;;;;9.50;5.03;;;;;;;20.29;74.29;98595.00;5040761;28;20041;-69
2021/07/28 08:22:17;;;;;;;7.43;4.93;;;;;;;20.42;74.13;98610.13;5035491;28;20414;-67
2021/07/28 08:24:42;;;;;;;9.68;4.72;;;;;;;20.51;74.44;98607.66;5048975;28;20090;-68
2021/07/28 08:27:08;;;;;;;7.32;4.60;;;;;;;20.40;75.08;98603.25;5047366;28;20036;-69
2021/07/28 08:29:33;;;;;;;7.22;4.15;;;;;;;20.52;74.74;98615.66;5041421;28;20056;-70
2021/07/28 08:31:58;;;;;;;7.38;4.60;;;;;;;20.51;75.78;98614.00;5044194;28;20039;-71
2021/07/28 08:34:23;;;;;;;6.63;4.88;;;;;;;20.31;75.31;98584.56;5035834;28;20092;-72
2021/07/28 08:36:49;;;;;;;10.32;5.10;;;;;;;20.57;75.31;98618.44;5048853;28;20102;-66
2021/07/28 08:39:14;;;;;;;10.10;5.90;;;;;;;20.35;76.22;98610.38;5036141;28;20041;-67
2021/07/28 08:41:46;;;;;;;10.57;5.25;;;;;;;20.46;76.35;98588.44;5039381;28;20111;-67
2021/07/28 08:44:13;;;;;;;6.78;4.68;;;;;;;20.63;75.46;98600.03;5047487;28;20667;-66
2021/07/28 08:46:38;;;;;;;7.68;4.90;;;;;;;20.67;75.00;98598.38;5049200;28;20108;-69
2021/07/28 08:49:03;;;;;;;8.40;5.07;;;;;;;20.54;74.92;98572.28;5039983;28;20116;-67
2021/07/28 08:51:29;;;;;;;9.75;4.72;;;;;;;20.92;73.98;98583.78;5029082;28;20032;-69
2021/07/28 08:53:54;;;;;;;7.72;5.68;;;;;;;21.12;72.94;98590.38;5018188;28;20029;-69
2021/07/28 08:56:22;;;;;;;10.23;5.35;;;;;;;21.02;73.78;98591.22;5033388;28;20040;-65
2021/07/28 08:58:48;;;;;;;10.05;5.93;;;;;;;20.90;74.89;98593.41;5016664;28;20029;-68
2021/07/28 09:01:13;;;;;;;10.18;6.20;;;;;;;20.88;73.95;98590.13;5031189;28;20036;-66
2021/07/28 09:03:39;;;;;;;7.53;5.40;;;;;;;20.85;74.72;98590.66;5039947;28;20017;-69
2021/07/28 09:06:04;;;;;;;8.50;5.40;;;;;;;20.93;74.78;98593.72;5048492;28;20036;-68
2021/07/28 09:08:32;;;;;;;8.00;5.20;;;;;;;20.88;73.67;98585.47;5027403;28;20029;-67
2021/07/28 09:11:03;;;;;;;11.10;5.18;;;;;;;20.85;73.91;98585.16;5038863;28;20031;-65
2021/07/28 09:13:34;;;;;;;6.30;4.68;;;;;;;21.00;72.51;98585.16;5039173;28;20086;-65
2021/07/28 09:16:01;;;;;;;8.05;4.93;;;;;;;21.05;71.27;98574.16;5042304;28;20021;-72
2021/07/28 09:18:38;;;;;;;9.50;4.70;;;;;;;20.99;70.82;98576.09;5022966;28;20020;-69
2021/07/28 09:21:20;;;;;;;5.63;4.45;;;;;;;20.79;71.84;98576.94;5043202;28;20359;-69
2021/07/28 09:23:47;;;;;;;7.03;3.90;;;;;;;21.48;69.27;98582.88;5014484;28;20056;-68
2021/07/28 09:26:30;;;;;;;5.68;4.47;;;;;;;22.41;65.76;98575.03;5031711;28;20028;-68
2021/07/28 09:29:14;;;;;;;4.30;3.50;;;;;;;22.52;64.69;98560.03;5034909;28;20124;-68
2021/07/28 09:31:47;;;;;;;6.18;3.60;;;;;;;23.87;60.67;98570.31;5036847;28;20033;-68
2021/07/28 09:34:19;;;;;;;5.40;3.70;;;;;;;24.76;58.16;98582.56;5035421;28;20028;-66
2021/07/28 09:36:44;;;;;;;7.53;3.75;;;;;;;24.21;57.87;98594.19;5031552;28;20036;-64
2021/07/28 09:39:21;;;;;;;5.88;3.70;;;;;;;23.44;59.97;98597.84;5036164;28;20403;-65
2021/07/28 09:41:46;;;;;;;6.55;3.85;;;;;;;23.39;59.48;98595.13;5039477;28;20056;-68
2021/07/28 09:44:23;;;;;;;6.97;4.30;;;;;;;23.46;59.39;98578.22;5027265;28;20131;-71
2021/07/28 09:46:50;;;;;;;7.68;3.40;;;;;;;23.91;58.67;98573.28;5034417;28;20491;-65
2021/07/28 09:49:18;;;;;;;5.90;3.80;;;;;;;24.05;56.99;98566.75;5035181;28;20029;-68
2021/07/28 09:51:46;;;;;;;6.30;4.23;;;;;;;25.28;55.44;98586.09;5039262;28;20480;-69
2021/07/28 09:54:13;;;;;;;7.03;3.85;;;;;;;24.98;54.98;98588.28;5045738;28;20271;-69
2021/07/28 09:56:53;;;;;;;7.35;3.97;;;;;;;24.71;54.81;98556.63;5020466;28;20501;-67
2021/07/28 09:59:19;;;;;;;6.85;3.45;;;;;;;24.20;55.06;98601.63;5026919;28;20452;-68
2021/07/28 10:01:46;;;;;;;7.60;3.50;;;;;;;23.71;58.10;98605.56;5035592;28;20040;-69
2021/07/28 10:04:13;;;;;;;4.90;3.65;;;;;;;24.57;57.27;98594.47;5033169;28;20108;-67
2021/07/28 10:06:40;;;;;;;4.18;3.47;;;;;;;24.80;55.68;98581.66;5048338;28;20189;-70
2021/07/28 10:09:16;;;;;;;5.38;3.92;;;;;;;25.54;54.91;98608.59;5032618;28;20025;-69
2021/07/28 10:11:49;;;;;;;8.00;3.38;;;;;;;26.30;51.81;98600.66;5043478;28;20495;-72
2021/07/28 10:14:17;;;;;;;7.55;3.50;;;;;;;26.72;51.45;98589.47;5021850;28;20022;-65
2021/07/28 10:16:43;;;;;;;6.05;3.50;;;;;;;25.87;52.23;98589.16;5039286;28;20017;-69
2021/07/28 10:19:09;;;;;;;5.93;3.40;;;;;;;25.44;54.09;98578.31;5033402;28;20443;-69
2021/07/28 10:21:35;;;;;;;6.32;4.00;;;;;;;24.30;56.60;98594.31;5032122;28;20052;-69
2021/07/28 10:24:03;;;;;;;6.63;3.65;;;;;;;24.31;55.20;98596.75;5031953;28;20033;-69
2021/07/28 10:26:32;;;;;;;5.45;3.53;;;;;;;24.28;55.13;98592.66;5050307;28;20398;-70
2021/07/28 10:28:57;;;;;;;5.25;3.42;;;;;;;23.80;56.25;98592.75;5038230;28;20033;-69
2021/07/28 10:31:25;;;;;;;5.78;3.70;;;;;;;23.53;56.19;98603.56;5032756;28;20037;-68
2021/07/28 10:33:56;;;;;;;5.05;3.60;;;;;;;23.40;55.74;98583.00;5041858;28;20108;-69
2021/07/28 10:36:45;;;;;;;7.43;3.75;;;;;;;23.02;56.89;98601.31;5036477;28;20487;-69
2021/07/28 10:39:11;;;;;;;6.32;3.42;;;;;;;22.67;56.72;98592.19;5031829;28;20071;-69
2021/07/28 10:41:41;;;;;;;4.97;3.08;;;;;;;22.75;57.21;98599.84;5032993;28;20060;-69
2021/07/28 10:44:25;;;;;;;4.43;3.20;;;;;;;22.56;57.65;98580.44;5031465;28;20029;-69
2021/07/28 10:46:53;;;;;;;8.43;3.30;;;;;;;22.86;57.97;98600.59;5033754;28;20041;-69
2021/07/28 10:49:37;;;;;;;4.45;3.13;;;;;;;22.59;58.27;98598.34;5035366;28;20038;-69
2021/07/28 10:52:13;;;;;;;4.93;3.05;;;;;;;23.02;57.56;98590.28;5031734;28;20450;-69
2021/07/28 10:54:52;;;;;;;6.18;4.05;;;;;;;22.61;58.17;98599.69;5032135;28;20425;-69
2021/07/28 10:57:32;;;;;;;8.05;3.60;;;;;;;22.34;59.27;98604.84;5031954;28;20407;-69
2021/07/28 10:59:58;;;;;;;6.20;3.95;;;;;;;22.44;58.46;98593.75;5048995;28;20025;-68
2021/07/28 11:02:23;;;;;;;5.68;3.65;;;;;;;22.44;59.51;98602.81;5034297;28;20048;-69
2021/07/28 11:05:27;;;;;;;7.28;3.28;;;;;;;22.29;60.04;98602.94;5031321;28;20018;-70
2021/07/28 11:07:58;;;;;;;7.28;3.85;;;;;;;22.80;59.15;98597.06;5031669;28;20064;-68
2021/07/28 11:10:23;;;;;;;6.50;3.50;;;;;;;23.64;55.65;98583.00;5035938;28;20035;-68
2021/07/28 11:12:49;;;;;;;4.57;3.40;;;;;;;23.65;56.74;98590.16;5016542;28;20120;-68
2021/07/28 11:15:18;;;;;;;5.32;3.42;;;;;;;24.77;53.86;98571.19;5032683;28;20026;-68
2021/07/28 11:17:43;;;;;;;6.25;3.50;;;;;;;25.34;51.54;98563.56;5032709;28;20029;-66
2021/07/28 11:20:10;;;;;;;5.57;3.40;;;;;;;25.74;50.39;98549.19;5032653;28;20035;-66
2021/07/28 11:22:35;;;;;;;7.57;3.50;;;;;;;25.91;50.32;98570.75;5048072;28;20039;-66